createdAt,value
2023-03-02T00:01:42.284Z,-0.52
2023-03-02T00:04:38.607Z,-0.57
2023-03-02T00:07:32.220Z,-0.75
2023-03-02T00:10:17.537Z,-0.71
2023-03-02T00:13:03.293Z,-1.69
2023-03-02T00:16:08.756Z,-0.48
2023-03-02T00:18:54.993Z,-0.60
2023-03-02T00:21:41.192Z,-0.66
2023-03-02T00:24:26.883Z,-0.64
2023-03-02T00:27:12.809Z,-0.53
2023-03-02T00:29:58.560Z,-0.66
2023-03-02T00:32:45.712Z,-0.74
2023-03-02T00:35:31.339Z,-1.33
2023-03-02T00:38:17.248Z,-0.85
2023-03-02T00:41:02.567Z,-1.98
2023-03-02T00:43:48.862Z,-0.87
2023-03-02T00:46:35.244Z,-0.83
2023-03-02T00:49:20.860Z,-0.74
2023-03-02T00:52:06.469Z,-2.13
2023-03-02T00:54:52.205Z,-0.82
2023-03-02T00:57:37.824Z,-2.20
2023-03-02T01:00:24.408Z,-0.87
2023-03-02T01:03:10.209Z,-0.97
2023-03-02T01:05:56.325Z,-0.98
2023-03-02T01:08:41.526Z,-1.08
2023-03-02T01:11:27.243Z,-1.26
2023-03-02T01:14:12.761Z,-2.56
2023-03-02T01:16:58.689Z,-1.14
2023-03-02T01:19:44.614Z,-1.23
2023-03-02T01:22:30.171Z,-1.38
2023-03-02T01:25:16.065Z,-1.39
2023-03-02T01:28:01.652Z,-1.55
2023-03-02T01:30:47.685Z,-1.41
2023-03-02T01:33:33.300Z,-1.21
2023-03-02T01:36:19.588Z,-1.16
2023-03-02T01:39:05.196Z,-1.26
2023-03-02T01:41:52.707Z,-1.08
2023-03-02T01:44:51.231Z,-1.54
2023-03-02T01:47:39.974Z,-0.93
2023-03-02T01:50:32.850Z,-1.82
2023-03-02T01:53:18.745Z,-1.39
2023-03-02T01:56:05.731Z,-2.70
2023-03-02T01:58:54.692Z,-1.11
2023-03-02T02:01:44.364Z,-1.17
2023-03-02T02:04:32.300Z,-1.14
2023-03-02T02:07:18.527Z,-1.86
2023-03-02T02:10:05.292Z,-1.43
2023-03-02T02:12:51.082Z,-1.52
2023-03-02T02:15:38.539Z,-1.93
2023-03-02T02:18:25.964Z,-1.15
2023-03-02T02:21:11.830Z,-1.03
2023-03-02T02:24:22.545Z,-1.02
2023-03-02T02:27:08.442Z,-2.49
2023-03-02T02:29:55.140Z,-1.27
2023-03-02T02:32:43.459Z,-1.21
2023-03-02T02:35:33.340Z,-1.23
2023-03-02T02:38:21.456Z,-1.09
2023-03-02T02:41:16.072Z,-1.15
2023-03-02T02:44:02.591Z,-1.15
2023-03-02T02:46:48.154Z,-1.13
2023-03-02T02:49:40.332Z,-1.11
2023-03-02T02:52:28.848Z,-1.31
2023-03-02T02:55:19.206Z,-2.74
2023-03-02T02:58:21.684Z,-2.48
2023-03-02T03:01:08.329Z,-2.53
2023-03-02T03:03:58.533Z,-2.81
2023-03-02T03:07:13.266Z,-1.44
2023-03-02T03:10:25.812Z,-1.73
2023-03-02T03:13:13.107Z,-1.85
2023-03-02T03:16:01.591Z,-3.02
2023-03-02T03:18:51.552Z,-1.49
2023-03-02T03:21:37.842Z,-1.43
2023-03-02T03:24:27.022Z,-1.56
2023-03-02T03:27:15.737Z,-2.81
2023-03-02T03:30:02.247Z,-2.20
2023-03-02T03:32:50.837Z,-1.25
2023-03-02T03:35:36.999Z,-1.44
2023-03-02T03:38:22.938Z,-1.40
2023-03-02T03:41:09.097Z,-1.34
2023-03-02T03:43:54.978Z,-1.19
2023-03-02T03:46:40.433Z,-1.11
2023-03-02T03:49:26.456Z,-1.35
2023-03-02T03:52:13.679Z,-2.08
2023-03-02T03:55:02.013Z,-1.04
2023-03-02T03:57:48.678Z,-1.32
2023-03-02T04:00:35.432Z,-1.09
2023-03-02T04:03:28.068Z,-1.04
2023-03-02T04:06:19.231Z,-2.79
2023-03-02T04:09:07.233Z,-1.32
2023-03-02T04:11:54.838Z,-1.58
2023-03-02T04:14:40.734Z,-1.27
2023-03-02T04:17:27.745Z,-1.47
2023-03-02T04:20:17.881Z,-1.28
2023-03-02T04:23:07.865Z,-1.41
2023-03-02T04:25:53.669Z,-1.30
2023-03-02T04:28:41.809Z,-1.41
2023-03-02T04:31:28.382Z,-1.39
2023-03-02T04:34:14.842Z,-1.61
2023-03-02T04:37:02.320Z,-2.92
2023-03-02T04:39:51.222Z,-2.81
2023-03-02T04:42:37.218Z,-1.61
2023-03-02T04:45:22.933Z,-1.64
2023-03-02T04:48:08.372Z,-1.86
2023-03-02T04:50:53.890Z,-1.72
2023-03-02T04:53:39.591Z,-1.94
2023-03-02T04:56:25.988Z,-1.61
2023-03-02T04:59:11.642Z,-2.96
2023-03-02T05:02:00.795Z,-1.70
2023-03-02T05:04:46.395Z,-1.56
2023-03-02T05:07:31.918Z,-1.58
2023-03-02T05:10:18.324Z,-1.70
2023-03-02T05:13:05.748Z,-1.85
2023-03-02T05:15:51.913Z,-1.73
2023-03-02T05:18:37.277Z,-2.92
2023-03-02T05:21:22.979Z,-2.73
2023-03-02T05:24:08.479Z,-1.57
2023-03-02T05:26:54.004Z,-2.26
2023-03-02T05:29:39.379Z,-2.94
2023-03-02T05:32:25.035Z,-1.61
2023-03-02T05:35:10.860Z,-1.66
2023-03-02T05:37:56.606Z,-2.00
2023-03-02T05:40:42.641Z,-1.74
2023-03-02T05:43:28.221Z,-1.72
2023-03-02T05:46:13.903Z,-1.87
2023-03-02T05:48:59.048Z,-1.70
2023-03-02T05:51:44.632Z,-3.09
2023-03-02T05:54:30.184Z,-1.89
2023-03-02T05:57:15.503Z,-3.26
2023-03-02T06:00:01.046Z,-1.92
2023-03-02T06:02:46.631Z,-2.96
2023-03-02T06:05:32.739Z,-1.89
2023-03-02T06:08:19.940Z,-1.79
2023-03-02T06:11:05.298Z,-1.70
2023-03-02T06:13:50.853Z,-1.61
2023-03-02T06:16:47.493Z,-1.36
2023-03-02T06:19:58.905Z,-1.07
2023-03-02T06:22:47.130Z,-2.13
2023-03-02T06:25:33.062Z,-0.43
2023-03-02T06:28:20.159Z,-0.36
2023-03-02T06:31:05.632Z,0.23
2023-03-02T06:33:51.297Z,0.52
2023-03-02T06:36:40.052Z,0.84
2023-03-02T06:39:25.776Z,1.04
2023-03-02T06:42:11.099Z,1.32
2023-03-02T06:44:56.774Z,1.47
2023-03-02T06:47:42.177Z,0.45
2023-03-02T06:50:28.695Z,1.61
2023-03-02T06:53:17.617Z,0.65
2023-03-02T06:56:03.658Z,2.05
2023-03-02T06:58:49.168Z,2.17
2023-03-02T07:01:36.310Z,2.00
2023-03-02T07:04:21.921Z,2.17
2023-03-02T07:07:08.492Z,2.20
2023-03-02T07:09:54.320Z,2.21
2023-03-02T07:12:41.210Z,1.11
2023-03-02T07:15:26.603Z,2.11
2023-03-02T07:18:12.425Z,2.24
2023-03-02T07:20:58.122Z,2.16
2023-03-02T07:23:43.748Z,2.09
2023-03-02T07:26:29.128Z,2.34
2023-03-02T07:29:14.493Z,0.92
2023-03-02T07:32:00.074Z,1.20
2023-03-02T07:34:45.623Z,2.53
2023-03-02T07:37:30.975Z,2.50
2023-03-02T07:40:17.083Z,2.86
2023-03-02T07:43:02.473Z,2.83
2023-03-02T07:45:48.081Z,2.92
2023-03-02T07:48:33.981Z,1.83
2023-03-02T07:51:26.141Z,3.04
2023-03-02T07:54:11.597Z,2.88
2023-03-02T07:56:58.084Z,2.82
2023-03-02T07:59:44.646Z,3.00
2023-03-02T08:02:30.931Z,3.08
2023-03-02T08:05:22.261Z,3.09
2023-03-02T08:08:08.044Z,2.20
2023-03-02T08:10:53.672Z,2.80
2023-03-02T08:13:39.904Z,1.86
2023-03-02T08:16:26.787Z,3.22
2023-03-02T08:19:12.875Z,1.99
2023-03-02T08:21:58.756Z,3.30
2023-03-02T08:24:48.013Z,3.33
2023-03-02T08:27:34.353Z,3.55
2023-03-02T08:30:26.047Z,3.59
2023-03-02T08:33:13.572Z,2.56
2023-03-02T08:36:05.351Z,2.99
2023-03-02T08:38:54.172Z,3.75
2023-03-02T08:41:39.722Z,3.82
2023-03-02T08:44:25.003Z,3.67
2023-03-02T08:47:11.439Z,2.94
2023-03-02T08:49:57.353Z,4.02
2023-03-02T08:52:43.687Z,4.13
2023-03-02T08:55:30.710Z,3.11
2023-03-02T08:58:16.023Z,4.19
2023-03-02T09:01:01.686Z,4.20
2023-03-02T09:03:47.544Z,4.21
2023-03-02T09:06:44.273Z,4.27
2023-03-02T09:09:29.721Z,4.23
2023-03-02T09:12:15.467Z,4.37
2023-03-02T09:15:01.630Z,4.36
2023-03-02T09:17:47.153Z,4.21
2023-03-02T09:20:33.972Z,4.23
2023-03-02T09:23:20.592Z,4.55
2023-03-02T09:26:06.127Z,4.37
2023-03-02T09:28:51.580Z,3.40
2023-03-02T09:31:38.038Z,4.72
2023-03-02T09:34:23.990Z,4.79
2023-03-02T09:37:09.925Z,4.84
2023-03-02T09:39:55.520Z,4.99
2023-03-02T09:43:05.831Z,5.03
2023-03-02T09:45:56.183Z,5.05
2023-03-02T09:49:18.912Z,5.13
2023-03-02T09:52:07.589Z,5.18
2023-03-02T09:54:53.429Z,4.21
2023-03-02T09:57:39.945Z,5.28
2023-03-02T10:00:36.686Z,5.07
2023-03-02T10:03:32.382Z,5.37
2023-03-02T10:06:19.735Z,5.40
2023-03-02T10:09:05.357Z,5.40
2023-03-02T10:12:08.197Z,5.34
2023-03-02T10:15:04.127Z,5.39
2023-03-02T10:18:02.213Z,5.37
2023-03-02T10:20:53.801Z,5.44
2023-03-02T10:23:42.572Z,5.48
2023-03-02T10:26:40.718Z,5.49
2023-03-02T10:29:53.442Z,5.60
2023-03-02T10:32:46.063Z,5.56
2023-03-02T10:35:32.530Z,5.73
2023-03-02T10:38:24.375Z,5.82
2023-03-02T10:41:18.977Z,5.91
2023-03-02T10:44:08.184Z,5.93
2023-03-02T10:46:54.273Z,6.02
2023-03-02T10:49:43.584Z,5.30
2023-03-02T10:52:34.921Z,6.27
2023-03-02T10:55:21.487Z,6.41
2023-03-02T10:58:34.955Z,6.57
2023-03-02T11:01:21.739Z,6.65
2023-03-02T11:04:15.022Z,5.87
2023-03-02T11:07:31.973Z,6.77
2023-03-02T11:10:29.991Z,6.66
2023-03-02T11:13:29.828Z,6.87
2023-03-02T11:16:18.624Z,6.91
2023-03-02T11:19:12.095Z,6.87
2023-03-02T11:22:03.226Z,6.93
2023-03-02T11:24:55.139Z,6.80
2023-03-02T11:27:44.232Z,5.72
2023-03-02T11:30:34.183Z,6.74
2023-03-02T11:33:29.945Z,6.86
2023-03-02T11:36:20.756Z,6.61
2023-03-02T11:39:14.884Z,5.70
2023-03-02T11:42:00.338Z,5.78
2023-03-02T11:44:50.307Z,6.91
2023-03-02T11:47:37.799Z,6.92
2023-03-02T11:50:23.703Z,6.79
2023-03-02T11:53:14.867Z,5.89
2023-03-02T11:56:00.497Z,6.95
2023-03-02T11:58:52.995Z,6.83
2023-03-02T12:01:40.328Z,6.95
2023-03-02T12:04:28.968Z,7.02
2023-03-02T12:07:19.403Z,7.07
2023-03-02T12:10:28.582Z,6.94
2023-03-02T12:13:20.080Z,7.12
2023-03-02T12:16:20.568Z,7.09
2023-03-02T12:19:26.293Z,7.09
2023-03-02T12:22:14.609Z,7.11
2023-03-02T12:25:20.290Z,7.15
2023-03-02T12:28:06.026Z,7.00
2023-03-02T12:31:08.402Z,7.08
2023-03-02T12:33:54.098Z,7.04
2023-03-02T12:36:44.063Z,7.05
2023-03-02T12:40:03.358Z,7.08
2023-03-02T12:43:01.674Z,7.07
2023-03-02T12:46:27.994Z,7.10
2023-03-02T12:49:44.146Z,7.12
2023-03-02T12:52:35.508Z,7.17
2023-03-02T12:55:21.139Z,7.16
2023-03-02T12:58:18.784Z,6.36
2023-03-02T13:01:05.939Z,6.03
2023-03-02T13:03:53.601Z,7.11
2023-03-02T13:06:40.198Z,7.12
2023-03-02T13:09:26.543Z,7.12
2023-03-02T13:12:15.253Z,6.13
2023-03-02T13:15:01.179Z,7.26
2023-03-02T13:17:55.555Z,6.95
2023-03-02T13:20:41.185Z,7.15
2023-03-02T13:23:29.175Z,7.32
2023-03-02T13:26:34.598Z,7.37
2023-03-02T13:29:20.736Z,7.25
2023-03-02T13:32:27.010Z,7.39
2023-03-02T13:35:24.381Z,7.11
2023-03-02T13:38:18.460Z,7.42
2023-03-02T13:41:04.047Z,7.23
2023-03-02T13:43:49.838Z,7.45
2023-03-02T13:46:39.199Z,7.38
2023-03-02T13:49:29.444Z,7.37
2023-03-02T13:52:29.777Z,7.01
2023-03-02T13:55:17.623Z,7.16
2023-03-02T13:58:03.411Z,7.07
2023-03-02T14:00:50.153Z,6.05
2023-03-02T14:03:36.042Z,6.12
2023-03-02T14:06:21.571Z,6.09
2023-03-02T14:09:07.044Z,7.44
2023-03-02T14:11:55.431Z,7.42
2023-03-02T14:14:41.302Z,7.45
2023-03-02T14:17:28.107Z,7.48
2023-03-02T14:20:19.631Z,7.47
2023-03-02T14:23:06.986Z,7.45
2023-03-02T14:25:55.299Z,7.42
2023-03-02T14:28:40.901Z,7.42
2023-03-02T14:31:27.467Z,7.36
2023-03-02T14:34:18.228Z,6.22
2023-03-02T14:37:07.069Z,7.42
2023-03-02T14:39:55.624Z,7.40
2023-03-02T14:42:41.721Z,7.42
2023-03-02T14:45:29.270Z,7.29
2023-03-02T14:48:16.101Z,7.36
2023-03-02T14:51:04.202Z,7.19
2023-03-02T14:53:52.615Z,7.29
2023-03-02T14:56:50.181Z,6.34
2023-03-02T14:59:35.970Z,7.30
2023-03-02T15:02:25.982Z,7.24
2023-03-02T15:05:12.015Z,7.17
2023-03-02T15:07:58.758Z,6.33
2023-03-02T15:10:46.785Z,6.12
2023-03-02T15:13:32.526Z,7.32
2023-03-02T15:16:18.224Z,7.18
2023-03-02T15:19:03.918Z,6.96
2023-03-02T15:21:49.661Z,7.31
2023-03-02T15:24:35.453Z,7.32
2023-03-02T15:27:23.074Z,7.24
2023-03-02T15:30:09.362Z,5.94
2023-03-02T15:32:54.854Z,6.54
2023-03-02T15:35:40.971Z,6.78
2023-03-02T15:38:26.456Z,6.51
2023-03-02T15:41:13.791Z,6.44
2023-03-02T15:43:59.289Z,6.24
2023-03-02T15:46:44.936Z,6.12
2023-03-02T15:49:32.802Z,5.81
2023-03-02T15:52:20.121Z,5.97
2023-03-02T15:55:05.560Z,5.88
2023-03-02T15:57:51.497Z,5.98
2023-03-02T16:00:37.939Z,6.05
2023-03-02T16:03:24.926Z,6.08
2023-03-02T16:06:10.330Z,5.03
2023-03-02T16:08:55.949Z,4.98
2023-03-02T16:11:41.659Z,6.11
2023-03-02T16:14:27.175Z,5.27
2023-03-02T16:17:12.734Z,6.29
2023-03-02T16:19:58.252Z,6.28
2023-03-02T16:23:01.769Z,6.29
2023-03-02T16:25:51.085Z,5.10
2023-03-02T16:28:37.516Z,6.23
2023-03-02T16:31:26.903Z,6.14
2023-03-02T16:34:12.942Z,6.13
2023-03-02T16:37:00.331Z,4.87
2023-03-02T16:39:45.835Z,5.85
2023-03-02T16:42:31.644Z,5.57
2023-03-02T16:45:18.712Z,5.88
2023-03-02T16:48:05.620Z,5.67
2023-03-02T16:51:00.126Z,5.74
2023-03-02T16:53:46.011Z,5.73
2023-03-02T16:56:31.395Z,5.43
2023-03-02T16:59:17.266Z,5.30
2023-03-02T17:02:02.925Z,5.33
2023-03-02T17:04:48.551Z,5.15
2023-03-02T17:07:34.110Z,3.93
2023-03-02T17:10:21.883Z,3.32
2023-03-02T17:13:08.212Z,4.51
2023-03-02T17:15:53.867Z,4.27
2023-03-02T17:18:41.031Z,4.17
2023-03-02T17:21:27.051Z,4.31
2023-03-02T17:24:12.852Z,4.18
2023-03-02T17:26:58.697Z,2.73
2023-03-02T17:29:44.496Z,2.84
2023-03-02T17:32:30.083Z,3.83
2023-03-02T17:35:16.696Z,3.84
2023-03-02T17:38:03.045Z,3.73
2023-03-02T17:40:48.705Z,3.54
2023-03-02T17:43:38.018Z,3.47
2023-03-02T17:46:26.805Z,2.01
2023-03-02T17:49:13.315Z,3.33
2023-03-02T17:51:58.864Z,2.10
2023-03-02T17:54:44.929Z,3.04
2023-03-02T17:57:30.678Z,2.74
2023-03-02T18:00:18.926Z,3.26
2023-03-02T18:03:06.902Z,3.24
2023-03-02T18:05:53.139Z,3.44
2023-03-02T18:08:38.934Z,3.27
2023-03-02T18:11:25.602Z,3.44
2023-03-02T18:14:16.823Z,3.50
2023-03-02T18:17:05.027Z,2.20
2023-03-02T18:19:50.758Z,2.42
2023-03-02T18:22:36.187Z,3.67
2023-03-02T18:25:21.792Z,3.70
2023-03-02T18:28:07.339Z,3.67
2023-03-02T18:30:52.788Z,3.42
2023-03-02T18:33:38.688Z,3.38
2023-03-02T18:36:24.392Z,3.11
2023-03-02T18:39:10.672Z,3.19
2023-03-02T18:41:57.057Z,1.99
2023-03-02T18:44:44.219Z,3.19
2023-03-02T18:47:37.693Z,3.14
2023-03-02T18:50:24.150Z,1.69
2023-03-02T18:53:12.776Z,2.68
2023-03-02T18:55:59.745Z,2.21
2023-03-02T18:58:45.852Z,2.08
2023-03-02T19:01:32.103Z,2.34
2023-03-02T19:04:17.517Z,2.15
2023-03-02T19:07:04.424Z,2.51
2023-03-02T19:09:54.751Z,2.51
2023-03-02T19:13:12.955Z,2.69
2023-03-02T19:16:00.838Z,2.68
2023-03-02T19:18:46.263Z,1.09
2023-03-02T19:21:32.391Z,2.43
2023-03-02T19:24:17.894Z,1.01
2023-03-02T19:27:04.231Z,2.53
2023-03-02T19:29:50.406Z,2.38
2023-03-02T19:32:37.315Z,2.29
2023-03-02T19:35:26.499Z,1.06
2023-03-02T19:38:12.825Z,2.42
2023-03-02T19:41:00.838Z,2.05
2023-03-02T19:43:46.540Z,2.53
2023-03-02T19:46:32.241Z,2.47
2023-03-02T19:49:18.254Z,2.18
2023-03-02T19:52:05.283Z,2.50
2023-03-02T19:54:50.939Z,2.61
2023-03-02T19:57:37.691Z,2.60
2023-03-02T20:00:23.950Z,2.43
2023-03-02T20:03:09.909Z,2.46
2023-03-02T20:05:58.908Z,2.38
2023-03-02T20:08:48.260Z,2.12
2023-03-02T20:11:34.739Z,2.11
2023-03-02T20:14:33.463Z,1.88
2023-03-02T20:17:19.865Z,1.95
2023-03-02T20:20:08.249Z,1.90
2023-03-02T20:22:53.985Z,1.80
2023-03-02T20:25:39.416Z,1.90
2023-03-02T20:28:25.542Z,1.74
2023-03-02T20:31:13.146Z,1.97
2023-03-02T20:33:59.272Z,2.00
2023-03-02T20:36:45.835Z,1.89
2023-03-02T20:39:35.443Z,1.96
2023-03-02T20:42:21.540Z,1.87
2023-03-02T20:45:09.304Z,1.58
2023-03-02T20:47:57.147Z,1.92
2023-03-02T20:50:43.232Z,0.61
2023-03-02T20:53:29.023Z,1.97
2023-03-02T20:56:18.021Z,2.01
2023-03-02T20:59:04.252Z,1.81
2023-03-02T21:01:51.050Z,2.10
2023-03-02T21:04:36.586Z,0.97
2023-03-02T21:07:22.028Z,1.04
2023-03-02T21:10:09.746Z,2.01
2023-03-02T21:12:55.587Z,0.06
2023-03-02T21:15:41.207Z,1.96
2023-03-02T21:18:27.341Z,1.95
2023-03-02T21:21:13.454Z,1.92
2023-03-02T21:24:00.267Z,1.82
2023-03-02T21:26:48.040Z,0.36
2023-03-02T21:29:33.712Z,1.80
2023-03-02T21:32:19.265Z,1.74
2023-03-02T21:35:04.889Z,1.51
2023-03-02T21:37:53.716Z,1.64
2023-03-02T21:40:45.805Z,1.57
2023-03-02T21:43:31.401Z,0.58
2023-03-02T21:46:21.866Z,1.16
2023-03-02T21:49:07.602Z,1.37
2023-03-02T21:51:53.209Z,1.29
2023-03-02T21:54:38.702Z,1.28
2023-03-02T21:57:24.285Z,1.26
2023-03-02T22:00:18.487Z,1.18
2023-03-02T22:03:04.201Z,0.17
2023-03-02T22:05:49.988Z,1.20
2023-03-02T22:08:37.513Z,1.27
2023-03-02T22:11:25.666Z,1.23
2023-03-02T22:14:13.808Z,1.19
2023-03-02T22:16:59.458Z,-0.14
2023-03-02T22:19:45.670Z,1.19
2023-03-02T22:22:31.484Z,1.26
2023-03-02T22:25:18.671Z,1.33
2023-03-02T22:28:22.598Z,1.27
2023-03-02T22:31:18.494Z,1.19
2023-03-02T22:34:13.220Z,1.02
2023-03-02T22:37:09.641Z,1.27
2023-03-02T22:40:00.830Z,1.20
2023-03-02T22:42:46.343Z,1.04
2023-03-02T22:45:31.784Z,-0.07
2023-03-02T22:48:20.147Z,1.18
2023-03-02T22:51:22.236Z,1.30
2023-03-02T22:54:18.789Z,1.09
2023-03-02T22:57:04.035Z,1.26
2023-03-02T22:59:49.698Z,1.29
2023-03-02T23:02:40.502Z,1.05
2023-03-02T23:05:34.639Z,1.29
2023-03-02T23:08:30.250Z,1.32
2023-03-02T23:11:18.959Z,1.32
2023-03-02T23:14:29.354Z,1.12
2023-03-02T23:17:20.989Z,1.22
2023-03-02T23:20:10.169Z,1.26
2023-03-02T23:22:56.211Z,1.16
2023-03-02T23:25:41.973Z,1.10
2023-03-02T23:28:27.427Z,1.01
2023-03-02T23:31:13.449Z,0.88
2023-03-02T23:33:59.430Z,0.34
2023-03-02T23:36:44.990Z,0.98
2023-03-02T23:39:30.398Z,0.88
2023-03-02T23:42:15.725Z,-0.21
2023-03-02T23:45:01.229Z,-0.45
2023-03-02T23:47:46.645Z,0.79
2023-03-02T23:50:32.143Z,-0.50
2023-03-02T23:53:17.692Z,0.88
2023-03-02T23:56:03.377Z,0.84
2023-03-02T23:58:48.953Z,0.79
